Time;durP1;ratioP1;P1;durP2;ratioP2;P2;SDS_P1;SDS_P2;PMS_P1;PMS_P2;Temp;Humidity;BMP_temperature;BMP_pressure;BME280_temperature;BME280_humidity;BME280_pressure;Samples;Min_cycle;Max_cycle;Signal;HPM_P1;HPM_P2
2021/09/23 00:01:02;;;;;;;;;27.75;23.25;;;;;22.80;45.37;101553.06;6189998;22;53896;-74
2021/09/23 00:05:53;;;;;;;;;28.00;25.00;;;;;22.77;45.43;101551.38;6216993;22;45110;-74
2021/09/23 00:08:19;;;;;;;;;24.75;22.50;;;;;22.82;45.58;101554.75;6190187;22;45450;-74
2021/09/23 00:10:44;;;;;;;;;25.75;23.75;;;;;22.75;45.83;101539.00;6190457;22;45193;-74
2021/09/23 00:13:10;;;;;;;;;26.25;24.00;;;;;22.85;45.44;101535.22;6189957;22;45095;-75
2021/09/23 00:15:35;;;;;;;;;24.00;24.00;;;;;22.90;45.58;101538.59;6165042;22;45273;-74
2021/09/23 00:18:06;;;;;;;;;28.50;26.00;;;;;22.89;45.86;101536.88;6189450;22;47151;-74
2021/09/23 00:20:35;;;;;;;;;28.50;24.75;;;;;22.82;45.65;101521.94;6215814;22;45246;-74
2021/09/23 00:23:00;;;;;;;;;22.00;21.50;;;;;22.86;45.66;101521.00;6215701;22;45339;-74
2021/09/23 00:25:26;;;;;;;;;26.75;22.25;;;;;22.82;45.60;101516.63;6217146;22;45604;-74
2021/09/23 00:27:53;;;;;;;;;25.50;24.25;;;;;22.90;45.74;101527.97;6217117;22;45264;-74
2021/09/23 00:30:18;;;;;;;;;23.00;20.00;;;;;22.89;45.56;101536.00;6215704;22;45301;-74
2021/09/23 00:32:43;;;;;;;;;25.50;23.25;;;;;22.86;45.70;101531.66;6189691;22;45347;-74
2021/09/23 00:35:09;;;;;;;;;23.50;21.50;;;;;22.84;45.69;101531.66;6216645;22;55705;-74
2021/09/23 00:37:35;;;;;;;;;22.25;21.00;;;;;22.81;46.51;101525.53;6214964;22;47321;-74
2021/09/23 00:40:00;;;;;;;;;32.00;26.50;;;;;22.81;46.32;101533.53;6220337;22;53814;-74
2021/09/23 00:42:26;;;;;;;;;22.50;20.50;;;;;22.77;46.01;101529.22;6247712;22;45267;-74
2021/09/23 00:44:58;;;;;;;;;26.50;22.25;;;;;22.71;46.89;101524.94;6246801;22;61689;-75
2021/09/23 00:47:24;;;;;;;;;24.25;21.25;;;;;22.65;46.50;101509.13;6194544;22;46154;-74
2021/09/23 00:49:49;;;;;;;;;26.00;23.00;;;;;22.64;46.49;101512.72;6195789;22;45273;-74
2021/09/23 00:52:15;;;;;;;;;27.50;23.75;;;;;22.57;46.76;101503.16;6196727;22;45473;-74
2021/09/23 00:54:40;;;;;;;;;26.50;22.25;;;;;22.63;47.08;101526.94;6221926;22;45199;-74
2021/09/23 00:57:06;;;;;;;;;22.00;20.50;;;;;22.61;46.98;101517.25;6221614;22;45977;-74
2021/09/23 00:59:31;;;;;;;;;21.25;18.75;;;;;22.60;47.12;101520.84;6220919;22;45163;-74
2021/09/23 01:01:56;;;;;;;;;25.75;23.00;;;;;22.57;47.20;101508.47;6221375;22;45198;-75
2021/09/23 01:04:22;;;;;;;;;25.25;21.00;;;;;22.57;47.07;101512.00;6221068;22;45465;-74
2021/09/23 01:06:50;;;;;;;;;24.00;22.00;;;;;22.51;46.89;101493.56;6195601;22;57083;-74
2021/09/23 01:09:16;;;;;;;;;23.25;21.50;;;;;22.61;47.30;101499.50;6248592;22;45392;-74
2021/09/23 01:11:41;;;;;;;;;25.00;22.25;;;;;22.60;47.37;101480.94;6222023;22;45391;-74
2021/09/23 01:14:07;;;;;;;;;26.50;21.50;;;;;22.64;47.24;101483.44;6221439;22;45453;-74
2021/09/23 01:16:32;;;;;;;;;23.00;21.00;;;;;22.68;46.83;101477.13;6221135;22;46979;-75
2021/09/23 01:18:58;;;;;;;;;24.50;20.75;;;;;22.67;46.90;101475.34;6221514;22;45272;-74
2021/09/23 01:21:23;;;;;;;;;23.50;21.50;;;;;22.68;46.93;101460.28;6248986;22;45707;-74
2021/09/23 01:23:48;;;;;;;;;27.50;20.00;;;;;22.62;46.87;101447.16;6221629;22;45463;-74
2021/09/23 01:26:23;;;;;;;;;22.50;22.50;;;;;22.58;46.48;101447.22;6220752;22;54709;-75
2021/09/23 01:28:49;;;;;;;;;24.50;22.50;;;;;22.63;47.51;101454.22;6198172;22;45223;-74
2021/09/23 01:31:14;;;;;;;;;22.25;18.50;;;;;22.56;46.71;101442.88;6221910;22;45888;-75
2021/09/23 01:33:40;;;;;;;;;25.25;21.50;;;;;22.54;47.11;101442.94;6248520;22;45297;-75
2021/09/23 01:36:05;;;;;;;;;23.75;20.25;;;;;22.60;47.45;101446.34;6248608;22;45215;-74
2021/09/23 01:38:30;;;;;;;;;23.00;20.00;;;;;22.61;47.87;101445.41;6247985;22;45136;-74
2021/09/23 01:40:56;;;;;;;;;22.00;20.50;;;;;22.60;47.60;101439.22;6220953;22;49158;-74
2021/09/23 01:43:24;;;;;;;;;30.25;26.00;;;;;22.60;48.18;101438.34;6220931;22;45100;-74
2021/09/23 01:45:50;;;;;;;;;12.50;10.00;;;;;22.61;48.06;101435.66;6196156;22;45194;-74
2021/09/23 01:48:15;;;;;;;;;21.25;18.00;;;;;22.62;47.39;101429.41;6249136;22;45256;-75
2021/09/23 01:50:41;;;;;;;;;23.25;21.50;;;;;22.66;47.42;101427.50;6225301;22;45245;-73
2021/09/23 01:53:06;;;;;;;;;24.75;23.75;;;;;22.68;47.41;101431.03;6248159;22;45371;-73
2021/09/23 01:55:32;;;;;;;;;22.75;20.25;;;;;22.67;47.54;101423.94;6245729;22;64652;-73
2021/09/23 01:57:57;;;;;;;;;21.25;20.75;;;;;22.66;47.40;101422.19;6221370;22;45324;-73
2021/09/23 02:00:22;;;;;;;;;28.25;21.50;;;;;22.61;47.44;101422.34;6220870;22;53992;-73
2021/09/23 02:02:50;;;;;;;;;20.00;20.00;;;;;22.57;47.78;101420.69;6170212;22;54811;-73
2021/09/23 02:05:15;;;;;;;;;23.75;22.00;;;;;22.55;47.75;101415.41;6196202;22;48086;-73
2021/09/23 02:07:41;;;;;;;;;25.50;23.75;;;;;22.53;47.82;101421.69;6170576;22;45175;-73
2021/09/23 02:10:06;;;;;;;;;28.00;25.50;;;;;22.52;47.55;101425.28;6221556;22;45518;-73
2021/09/23 02:12:32;;;;;;;;;25.00;21.00;;;;;22.48;47.46;101413.84;6195679;22;45463;-73
2021/09/23 02:14:58;;;;;;;;;22.75;21.25;;;;;22.46;47.27;101421.00;6245614;22;61381;-73
2021/09/23 02:17:24;;;;;;;;;22.25;19.75;;;;;22.48;48.00;101412.97;6195670;22;45226;-73
2021/09/23 02:19:49;;;;;;;;;20.75;20.75;;;;;22.48;47.91;101403.19;6195569;22;45202;-74
2021/09/23 02:22:14;;;;;;;;;25.25;23.75;;;;;22.47;47.89;101404.13;6195328;22;45783;-73
2021/09/23 02:24:40;;;;;;;;;22.75;20.25;;;;;22.51;47.53;101412.91;6195431;22;47186;-73
2021/09/23 02:27:05;;;;;;;;;28.25;23.25;;;;;22.51;47.85;101407.59;6195155;22;61583;-73
2021/09/23 02:29:31;;;;;;;;;20.00;19.00;;;;;22.52;47.78;101399.53;6195836;22;45632;-74
2021/09/23 02:31:57;;;;;;;;;23.25;21.00;;;;;22.54;48.17;101400.38;6220900;22;45285;-78
2021/09/23 02:34:22;;;;;;;;;24.50;22.75;;;;;22.50;48.69;101388.09;6170577;22;47792;-73
2021/09/23 02:36:47;;;;;;;;;25.75;20.50;;;;;22.56;47.93;101389.66;6220391;22;63081;-73
2021/09/23 02:39:13;;;;;;;;;24.50;22.75;;;;;22.54;48.87;101397.69;6194674;22;49955;-73
2021/09/23 02:41:38;;;;;;;;;22.75;22.50;;;;;22.50;49.29;101396.06;6195547;22;45173;-74
2021/09/23 02:44:04;;;;;;;;;23.75;22.75;;;;;22.45;48.94;101390.00;6220899;22;47238;-74
2021/09/23 02:46:31;;;;;;;;;27.75;23.25;;;;;22.42;49.56;101389.22;6221467;22;45434;-74
2021/09/23 02:48:57;;;;;;;;;24.25;21.50;;;;;22.36;49.15;101384.09;6248175;22;45175;-74
2021/09/23 02:51:22;;;;;;;;;24.00;20.50;;;;;22.37;49.93;101405.31;6221128;22;45203;-74
2021/09/23 02:53:48;;;;;;;;;21.25;21.25;;;;;22.33;49.41;101398.34;6247540;22;60769;-74
2021/09/23 02:56:13;;;;;;;;;20.75;19.25;;;;;22.30;49.57;101401.06;6195869;22;45193;-74
2021/09/23 02:58:38;;;;;;;;;26.50;23.75;;;;;22.26;49.17;101394.13;6220579;22;54617;-73
2021/09/23 03:01:04;;;;;;;;;21.25;17.50;;;;;22.25;49.66;101395.91;6195381;22;55047;-74
2021/09/23 03:03:29;;;;;;;;;24.00;21.00;;;;;22.15;49.57;101381.13;6195786;22;46348;-74
2021/09/23 03:05:55;;;;;;;;;25.00;22.00;;;;;22.21;49.52;101385.38;6195019;22;58719;-74
2021/09/23 03:08:21;;;;;;;;;25.25;21.75;;;;;22.24;49.42;101382.63;6195620;22;51290;-74
2021/09/23 03:10:46;;;;;;;;;23.50;21.25;;;;;22.21;49.30;101378.28;6171013;22;45477;-74
2021/09/23 03:13:12;;;;;;;;;25.75;25.25;;;;;22.28;49.76;101378.97;6195735;22;45323;-74
2021/09/23 03:15:37;;;;;;;;;25.25;23.00;;;;;22.28;49.17;101379.84;6195832;22;51148;-74
2021/09/23 03:18:03;;;;;;;;;23.75;22.25;;;;;22.28;49.57;101379.84;6195491;22;45277;-74
2021/09/23 03:20:28;;;;;;;;;23.75;20.00;;;;;22.25;49.23;101385.28;6246486;22;45252;-74
2021/09/23 03:22:53;;;;;;;;;26.25;22.50;;;;;22.25;49.24;101382.63;6169937;22;47932;-74
2021/09/23 03:25:19;;;;;;;;;23.00;21.50;;;;;22.26;49.07;101375.50;6195935;22;45393;-74
2021/09/23 03:27:45;;;;;;;;;23.50;23.00;;;;;22.25;48.87;101379.09;6195685;22;45430;-74
2021/09/23 03:30:11;;;;;;;;;26.00;22.00;;;;;22.26;48.86;101375.50;6195950;22;45475;-74
2021/09/23 03:32:36;;;;;;;;;23.25;20.50;;;;;22.22;48.76;101369.38;6195106;22;47458;-74
2021/09/23 03:35:02;;;;;;;;;23.50;23.50;;;;;22.21;49.44;101372.09;6221089;22;45134;-73
2021/09/23 03:37:27;;;;;;;;;24.00;22.75;;;;;22.20;49.06;101365.03;6220245;22;45229;-74
2021/09/23 03:39:53;;;;;;;;;21.50;18.75;;;;;22.14;49.21;101358.09;6194748;22;48344;-74
2021/09/23 03:42:19;;;;;;;;;23.75;19.75;;;;;22.10;48.83;101352.94;6169993;22;47111;-74
2021/09/23 03:44:45;;;;;;;;;24.50;23.00;;;;;22.14;48.96;101350.13;6195091;22;51689;-74
2021/09/23 03:47:10;;;;;;;;;25.25;21.50;;;;;22.12;49.22;101351.09;6196075;22;45261;-73
2021/09/23 03:49:35;;;;;;;;;24.00;22.25;;;;;;;;6195570;22;45355;-73
2021/09/23 03:52:01;;;;;;;;;25.00;22.33;;;;;22.08;48.83;101360.09;6194387;22;58718;-74
2021/09/23 03:54:26;;;;;;;;;23.25;21.25;;;;;22.04;49.34;101353.94;6248065;22;45336;-74
2021/09/23 03:56:52;;;;;;;;;21.75;18.50;;;;;22.04;49.71;101348.63;6195554;22;45281;-73
2021/09/23 03:59:17;;;;;;;;;15.75;15.75;;;;;22.07;49.04;101347.69;6195208;22;45254;-73
2021/09/23 04:01:44;;;;;;;;;23.75;21.50;;;;;22.04;49.43;101353.06;6220278;22;59074;-73
2021/09/23 04:04:10;;;;;;;;;21.25;19.25;;;;;22.00;50.17;101349.63;6196385;22;45360;-73
2021/09/23 04:06:42;;;;;;;;;30.75;22.00;;;;;22.03;49.31;101349.53;6195143;22;45394;-73
2021/09/23 04:09:11;;;;;;;;;24.50;21.00;;;;;22.00;49.32;101358.47;6196571;22;45404;-73
2021/09/23 04:11:37;;;;;;;;;24.75;21.75;;;;;21.98;49.63;101354.13;6195996;22;46031;-74
2021/09/23 04:14:03;;;;;;;;;25.75;23.50;;;;;21.98;49.68;101360.31;6195131;22;45191;-73
2021/09/23 04:16:28;;;;;;;;;25.00;21.00;;;;;21.93;49.13;101359.56;6195414;22;45252;-74
2021/09/23 04:18:54;;;;;;;;;23.25;21.00;;;;;21.94;48.92;101355.09;6169707;22;45179;-74
2021/09/23 04:21:19;;;;;;;;;27.50;19.50;;;;;21.93;49.31;101366.66;6169513;22;48132;-74
2021/09/23 04:23:45;;;;;;;;;22.00;18.75;;;;;21.92;49.32;101363.13;6219819;22;45238;-74
2021/09/23 04:26:10;;;;;;;;;25.25;21.50;;;;;21.91;49.18;101355.22;6195347;22;45360;-74
2021/09/23 04:28:36;;;;;;;;;21.50;20.25;;;;;21.92;49.66;101357.81;6220755;22;45315;-74
2021/09/23 04:31:01;;;;;;;;;26.75;19.50;;;;;21.90;49.15;101353.47;6247461;22;46257;-74
2021/09/23 04:33:26;;;;;;;;;21.75;20.50;;;;;21.88;49.32;101363.25;6194876;22;45276;-73
2021/09/23 04:35:54;;;;;;;;;22.00;22.00;;;;;21.93;49.44;101366.66;6169321;22;54277;-73
2021/09/23 04:38:20;;;;;;;;;25.50;22.50;;;;;21.90;49.27;101367.63;6195609;22;45364;-73
2021/09/23 04:40:45;;;;;;;;;20.00;18.25;;;;;21.91;49.31;101365.84;6194767;22;47228;-74
2021/09/23 04:43:11;;;;;;;;;24.50;20.50;;;;;21.86;49.34;101371.25;6220555;22;45187;-74
2021/09/23 04:45:36;;;;;;;;;23.50;22.00;;;;;21.85;49.44;101366.88;6194969;22;45207;-74
2021/09/23 04:48:02;;;;;;;;;24.25;20.75;;;;;21.85;49.21;101369.53;6194502;22;45198;-73
2021/09/23 04:50:28;;;;;;;;;24.75;23.50;;;;;21.81;49.67;101372.31;6195731;22;46078;-74
2021/09/23 04:52:53;;;;;;;;;23.75;21.00;;;;;21.80;49.71;101374.06;6169690;22;45467;-74
2021/09/23 04:55:19;;;;;;;;;25.75;20.25;;;;;21.80;49.96;101370.56;6195307;22;45177;-73
2021/09/23 04:57:44;;;;;;;;;27.25;24.00;;;;;21.81;49.96;101372.31;6194795;22;45230;-74
2021/09/23 05:00:10;;;;;;;;;20.50;17.75;;;;;21.83;50.24;101368.69;6169270;22;54263;-73
2021/09/23 05:02:35;;;;;;;;;28.50;24.75;;;;;21.85;50.17;101368.66;6219707;22;45364;-74
2021/09/23 05:05:01;;;;;;;;;26.75;22.75;;;;;21.89;50.37;101375.63;6194969;22;45328;-74
2021/09/23 05:07:26;;;;;;;;;22.50;21.75;;;;;21.89;49.72;101380.94;6247297;22;45249;-74
2021/09/23 05:09:52;;;;;;;;;22.25;21.00;;;;;21.87;49.73;101380.09;6221173;22;46855;-75
2021/09/23 05:12:17;;;;;;;;;28.25;21.50;;;;;21.88;49.84;101382.72;6247677;22;45186;-78
2021/09/23 05:14:43;;;;;;;;;25.00;19.50;;;;;21.86;50.39;101375.72;6220578;22;45827;-72
2021/09/23 05:17:08;;;;;;;;;19.50;18.50;;;;;21.93;49.98;101391.44;6246455;22;63352;-72
2021/09/23 05:19:33;;;;;;;;;24.25;19.75;;;;;21.97;50.23;101400.19;6247300;22;46082;-74
2021/09/23 05:21:59;;;;;;;;;390.33;342.00;;;;;22.00;50.39;101403.66;6219444;22;46201;-78
2021/09/23 05:24:24;;;;;;;;;144.50;124.75;;;;;21.95;50.65;101394.06;6220451;22;45331;-80
2021/09/23 05:26:50;;;;;;;;;83.75;74.00;;;;;22.12;50.43;101401.59;6220056;22;45481;-75
2021/09/23 05:29:15;;;;;;;;;64.25;47.75;;;;;22.13;49.58;101401.56;6246513;22;58464;-75
2021/09/23 05:31:41;;;;;;;;;53.25;42.50;;;;;22.12;49.76;101391.84;6246761;22;49236;-86
2021/09/23 05:34:06;;;;;;;;;54.75;42.75;;;;;22.13;49.73;101406.88;6194974;22;45274;-78
2021/09/23 05:36:32;;;;;;;;;39.25;33.50;;;;;22.03;49.76;101392.06;6220162;22;45470;-77
2021/09/23 05:38:59;;;;;;;;;45.75;39.00;;;;;22.05;49.37;101395.53;6220859;22;45329;-77
2021/09/23 05:41:25;;;;;;;;;41.75;34.75;;;;;22.08;49.43;101397.31;6221694;22;45374;-80
2021/09/23 05:43:51;;;;;;;;;34.50;31.00;;;;;21.99;49.54;101393.06;6196343;22;45285;-79
2021/09/23 05:46:16;;;;;;;;;40.00;33.25;;;;;21.97;49.40;101401.06;6221137;22;45385;-78
2021/09/23 05:48:42;;;;;;;;;35.50;32.50;;;;;21.99;49.73;101412.56;6195484;22;46939;-77
2021/09/23 05:51:07;;;;;;;;;29.00;28.00;;;;;21.93;50.29;101407.41;6220879;22;55899;-80
2021/09/23 05:53:33;;;;;;;;;37.50;30.00;;;;;21.95;49.84;101413.53;6196251;22;45697;-79
2021/09/23 05:55:58;;;;;;;;;34.75;30.00;;;;;21.95;50.44;101413.53;6221009;22;45550;-79
2021/09/23 05:58:23;;;;;;;;;32.50;30.00;;;;;21.96;49.99;101415.28;6195549;22;51115;-79
2021/09/23 06:00:49;;;;;;;;;35.50;31.00;;;;;21.94;49.82;101422.44;6221397;22;45403;-84
2021/09/23 06:03:14;;;;;;;;;34.50;28.25;;;;;21.88;50.11;101403.97;6196261;22;45404;-82
2021/09/23 06:05:40;;;;;;;;;30.00;27.50;;;;;21.91;49.69;101413.69;6196306;22;47595;-81
2021/09/23 06:08:05;;;;;;;;;29.75;28.75;;;;;21.93;50.13;101418.03;6221289;22;45355;-81
2021/09/23 06:10:31;;;;;;;;;30.25;27.50;;;;;21.88;49.48;101414.59;6195733;22;51209;-81
2021/09/23 06:12:56;;;;;;;;;32.50;29.75;;;;;21.87;50.01;101417.31;6220795;22;45189;-81
2021/09/23 06:15:22;;;;;;;;;34.00;28.50;;;;;21.88;50.28;101425.25;6195857;22;45593;-81
2021/09/23 06:17:47;;;;;;;;;29.50;27.00;;;;;21.82;49.40;101417.44;6221549;22;45413;-81
2021/09/23 06:20:13;;;;;;;;;27.00;24.00;;;;;21.84;49.66;101431.56;6195549;22;45516;-81
2021/09/23 06:22:39;;;;;;;;;32.75;26.00;;;;;21.76;49.51;101417.59;6195651;22;45150;-81
2021/09/23 06:25:04;;;;;;;;;25.75;23.00;;;;;21.75;49.52;101422.97;6195491;22;45916;-82
2021/09/23 06:27:30;;;;;;;;;27.75;25.50;;;;;21.81;48.88;101431.66;6195592;22;46896;-81
2021/09/23 06:29:55;;;;;;;;;31.00;24.50;;;;;21.73;49.22;101423.00;6196181;22;45146;-82
2021/09/23 06:32:21;;;;;;;;;31.25;27.00;;;;;21.84;49.29;101433.34;6195519;22;45974;-82
2021/09/23 06:34:46;;;;;;;;;24.75;20.00;;;;;21.81;49.73;101436.97;6220475;22;57698;-81
2021/09/23 06:37:13;;;;;;;;;27.00;25.75;;;;;21.87;49.34;101446.53;6195656;22;52637;-77
2021/09/23 06:39:40;;;;;;;;;26.50;24.25;;;;;21.86;51.40;101447.47;6213767;22;45377;-74
2021/09/23 06:42:05;;;;;;;;;26.00;22.50;;;;;21.92;51.88;101453.50;6215171;22;45747;-74
2021/09/23 06:44:31;;;;;;;;;26.00;22.50;;;;;22.00;49.66;101442.66;6219466;22;45449;-74
2021/09/23 06:46:56;;;;;;;;;30.75;25.75;;;;;21.95;49.87;101425.97;6246717;22;45501;-76
2021/09/23 06:49:23;;;;;;;;;30.25;25.50;;;;;22.13;49.21;101444.09;6247240;22;53752;-73
2021/09/23 06:51:50;;;;;;;;;27.50;25.75;;;;;22.18;49.00;101450.16;6221769;22;45201;-72
2021/09/23 06:54:15;;;;;;;;;20.00;18.25;;;;;22.23;49.74;101450.03;6220865;22;45248;-75
2021/09/23 06:56:41;;;;;;;;;33.50;26.75;;;;;22.22;49.53;101446.50;6248001;22;50996;-72
2021/09/23 06:59:06;;;;;;;;;30.50;23.50;;;;;22.26;49.08;101445.50;6247718;22;45283;-75
2021/09/23 07:01:33;;;;;;;;;28.50;23.00;;;;;22.31;48.18;101448.03;6246468;22;45228;-74
2021/09/23 07:03:59;;;;;;;;;24.25;23.00;;;;;22.34;48.72;101439.13;6247188;22;45289;-74
2021/09/23 07:06:24;;;;;;;;;24.00;22.00;;;;;22.46;48.87;101436.09;6246926;22;45277;-73
2021/09/23 07:08:50;;;;;;;;;27.25;24.50;;;;;22.44;49.18;101411.31;6220502;22;45318;-74
2021/09/23 07:11:15;;;;;;;;;23.50;20.75;;;;;22.60;48.97;101428.59;6247176;22;45256;-73
2021/09/23 07:13:40;;;;;;;;;26.50;21.75;;;;;22.62;48.47;101421.44;6220323;22;45201;-74
2021/09/23 07:16:06;;;;;;;;;25.50;22.75;;;;;22.69;48.18;101433.63;6244431;22;63472;-74
2021/09/23 07:18:32;;;;;;;;;26.25;24.50;;;;;22.74;47.35;101433.47;6246382;22;45236;-74
2021/09/23 07:20:58;;;;;;;;;22.50;20.00;;;;;22.69;47.61;101425.66;6246803;22;45292;-74
2021/09/23 07:23:24;;;;;;;;;23.25;20.50;;;;;22.83;47.22;101434.06;6220002;22;45118;-74
2021/09/23 07:25:51;;;;;;;;;26.75;23.75;;;;;22.76;46.91;101428.97;6220261;22;45208;-74
2021/09/23 07:28:16;;;;;;;;;22.00;20.25;;;;;22.75;46.69;101422.78;6220161;22;45417;-74
2021/09/23 07:30:42;;;;;;;;;17.75;17.75;;;;;22.87;46.85;101437.56;6247392;22;45427;-74
2021/09/23 07:33:08;;;;;;;;;23.50;19.75;;;;;22.94;47.05;101439.13;6220042;22;45395;-74
2021/09/23 07:35:34;;;;;;;;;23.25;19.50;;;;;22.89;46.90;101424.19;6194522;22;47395;-74
2021/09/23 07:38:00;;;;;;;;;22.75;18.75;;;;;22.94;46.75;101422.28;6169853;22;45962;-74
2021/09/23 07:40:26;;;;;;;;;21.75;21.00;;;;;23.00;45.91;101430.91;6247230;22;45368;-74
2021/09/23 07:42:52;;;;;;;;;24.50;21.50;;;;;22.97;45.84;101407.06;6219820;22;45275;-74
2021/09/23 07:45:17;;;;;;;;;21.50;20.25;;;;;23.07;46.09;101424.50;6245057;22;47305;-74
2021/09/23 07:47:43;;;;;;;;;23.25;21.50;;;;;23.03;46.05;101412.22;6195064;22;45268;-74
2021/09/23 07:50:08;;;;;;;;;22.50;19.50;;;;;22.92;45.50;101416.97;6194614;22;45261;-74
2021/09/23 07:52:34;;;;;;;;;22.75;21.75;;;;;22.86;45.49;101411.88;6246754;22;45264;-74
2021/09/23 07:55:00;;;;;;;;;23.00;21.50;;;;;22.88;46.05;101428.66;6220215;22;45734;-74
2021/09/23 07:57:25;;;;;;;;;25.50;22.50;;;;;22.78;45.79;101411.19;6246843;22;45222;-75
2021/09/23 07:59:50;;;;;;;;;25.25;21.00;;;;;22.82;47.67;101413.69;6246933;22;45122;-77
2021/09/23 08:02:16;;;;;;;;;24.50;21.25;;;;;22.97;47.41;101425.69;6193926;22;45261;-78
2021/09/23 08:04:41;;;;;;;;;21.00;19.25;;;;;23.07;47.02;101420.97;6220169;22;45371;-77
2021/09/23 08:07:07;;;;;;;;;28.50;25.00;;;;;23.08;47.17;101414.72;6219307;22;50548;-77
2021/09/23 08:09:32;;;;;;;;;20.75;19.25;;;;;23.15;46.82;101415.38;6194859;22;45254;-78
2021/09/23 08:11:58;;;;;;;;;24.75;22.00;;;;;23.23;45.86;101422.22;6220039;22;45265;-77
2021/09/23 08:14:25;;;;;;;;;20.50;20.25;;;;;23.26;45.69;101426.56;6218486;22;45299;-77
2021/09/23 08:16:51;;;;;;;;;20.25;20.00;;;;;23.22;46.24;101414.28;6220254;22;45410;-78
2021/09/23 08:19:16;;;;;;;;;21.75;19.00;;;;;23.26;45.71;101413.25;6219666;22;45213;-77
2021/09/23 08:21:41;;;;;;;;;21.25;18.50;;;;;23.27;45.50;101407.00;6194605;22;45822;-77
2021/09/23 08:24:07;;;;;;;;;25.50;21.50;;;;;23.28;46.35;101409.63;6194413;22;46022;-78
2021/09/23 08:26:32;;;;;;;;;21.25;17.25;;;;;23.32;45.59;101416.59;6246230;22;48496;-77
2021/09/23 08:28:58;;;;;;;;;24.50;21.00;;;;;23.31;45.66;101413.97;6194882;22;45385;-77
2021/09/23 08:31:24;;;;;;;;;18.50;17.50;;;;;23.37;45.52;101412.00;6219713;22;45265;-77
2021/09/23 08:33:49;;;;;;;;;16.50;16.00;;;;;23.36;45.94;101401.34;6194067;22;47324;-77
2021/09/23 08:36:15;;;;;;;;;22.25;20.25;;;;;23.51;45.89;101416.84;6218864;22;45193;-77
2021/09/23 08:38:40;;;;;;;;;26.75;21.75;;;;;23.46;44.95;101402.81;6213973;22;45296;-77
2021/09/23 08:41:06;;;;;;;;;21.25;19.75;;;;;23.48;45.59;101411.63;6214421;22;45477;-77
2021/09/23 08:43:33;;;;;;;;;22.25;18.25;;;;;23.52;45.43;101417.72;6188415;22;47117;-78
2021/09/23 08:45:59;;;;;;;;;17.75;15.75;;;;;23.51;45.49;101415.97;6214190;22;45377;-77
2021/09/23 08:48:24;;;;;;;;;23.75;23.00;;;;;23.56;45.92;101419.34;6215513;22;49942;-77
2021/09/23 08:50:50;;;;;;;;;21.50;15.25;;;;;23.48;45.39;101408.97;6214113;22;45367;-77
2021/09/23 08:53:15;;;;;;;;;28.00;21.50;;;;;23.50;45.03;101411.56;6214076;22;46369;-76
2021/09/23 08:55:41;;;;;;;;;23.00;21.00;;;;;23.48;44.69;101408.97;6215600;22;51965;-77
2021/09/23 08:58:07;;;;;;;;;25.75;23.00;;;;;23.56;44.86;101430.88;6216441;22;45241;-76
2021/09/23 09:00:36;;;;;;;;;25.25;23.50;;;;;23.57;44.27;101423.75;6188836;22;45249;-76
2021/09/23 09:03:06;;;;;;;;;26.75;24.75;;;;;23.50;44.40;101412.44;6215704;22;46270;-76
2021/09/23 09:05:32;;;;;;;;;23.50;20.50;;;;;23.57;45.03;101424.63;6213696;22;45201;-76
2021/09/23 09:08:05;;;;;;;;;28.00;21.50;;;;;23.56;45.48;101428.22;6213739;22;45196;-76
2021/09/23 09:10:31;;;;;;;;;21.00;20.00;;;;;23.63;45.93;101434.22;6213855;22;45339;-76
2021/09/23 09:13:00;;;;;;;;;20.00;19.00;;;;;23.63;44.93;101432.47;6190514;22;45550;-76
2021/09/23 09:15:33;;;;;;;;;19.50;19.50;;;;;23.62;45.01;101432.50;6216514;22;45115;-76
2021/09/23 09:18:10;;;;;;;;;20.50;18.50;;;;;23.62;44.50;101430.69;6191505;22;45451;-77
2021/09/23 09:20:49;;;;;;;;;17.25;16.50;;;;;23.63;44.85;101424.47;6215324;22;45260;-73
2021/09/23 09:23:14;;;;;;;;;24.00;19.50;;;;;23.63;44.02;101434.22;6214954;22;45438;-75
2021/09/23 09:25:40;;;;;;;;;22.75;21.25;;;;;23.60;44.09;101421.88;6217039;22;45320;-76
2021/09/23 09:28:06;;;;;;;;;20.75;18.75;;;;;23.65;44.18;101430.59;6214385;22;59440;-76
2021/09/23 09:30:33;;;;;;;;;17.50;14.00;;;;;23.59;44.79;101412.16;6215319;22;45465;-75
2021/09/23 09:32:59;;;;;;;;;19.25;14.50;;;;;23.62;44.52;101414.69;6215430;22;45321;-75
2021/09/23 09:35:31;;;;;;;;;20.50;19.25;;;;;23.68;44.99;101422.50;6214455;22;53599;-75
2021/09/23 09:37:58;;;;;;;;;20.75;16.00;;;;;23.72;43.96;101428.63;6219672;22;45201;-75
2021/09/23 09:40:26;;;;;;;;;17.75;16.50;;;;;23.69;44.81;101418.91;6220403;22;45263;-75
2021/09/23 09:42:52;;;;;;;;;21.25;18.75;;;;;23.72;43.84;101417.94;6220466;22;45749;-75
2021/09/23 09:45:20;;;;;;;;;19.25;18.00;;;;;23.74;44.46;101421.44;6247406;22;45341;-75
2021/09/23 09:47:52;;;;;;;;;17.50;15.00;;;;;23.78;43.60;101412.38;6247456;22;45397;-75
2021/09/23 09:50:21;;;;;;;;;16.75;14.50;;;;;23.80;44.44;101420.31;6198100;22;45359;-76
2021/09/23 09:52:48;;;;;;;;;18.00;13.75;;;;;23.78;43.94;101408.84;6247349;22;46061;-75
2021/09/23 09:55:14;;;;;;;;;14.50;12.25;;;;;23.79;43.43;101405.25;6195222;22;45242;-75
2021/09/23 09:57:45;;;;;;;;;15.75;14.25;;;;;23.77;43.53;101399.97;6220856;22;45384;-75
2021/09/23 10:00:11;;;;;;;;;19.75;15.00;;;;;23.77;43.07;101393.78;6246928;22;45423;-75
2021/09/23 10:02:37;;;;;;;;;11.25;11.25;;;;;23.82;43.15;101402.50;6219533;22;47497;-75
2021/09/23 10:05:02;;;;;;;;;16.50;14.25;;;;;23.77;42.48;101399.97;6220195;22;45157;-75
2021/09/23 10:07:28;;;;;;;;;18.75;17.50;;;;;23.79;43.17;101398.13;6219891;22;45280;-75
2021/09/23 10:09:55;;;;;;;;;15.50;14.50;;;;;23.78;42.87;101395.53;6195279;22;45155;-75
2021/09/23 10:12:22;;;;;;;;;17.75;15.00;;;;;23.83;43.18;101399.78;6220213;22;45507;-75
2021/09/23 10:14:47;;;;;;;;;16.25;15.25;;;;;23.82;42.92;101395.38;6247071;22;45354;-75
2021/09/23 10:17:16;;;;;;;;;15.50;14.25;;;;;23.79;43.20;101394.59;6169551;22;45716;-75
2021/09/23 10:19:43;;;;;;;;;16.50;14.75;;;;;23.75;42.14;101395.66;6220513;22;45426;-75
2021/09/23 10:22:10;;;;;;;;;14.50;14.25;;;;;23.82;42.85;101394.50;6195656;22;45145;-75
2021/09/23 10:24:35;;;;;;;;;15.50;15.50;;;;;23.83;42.78;101396.25;6220417;22;45272;-75
2021/09/23 10:27:01;;;;;;;;;16.00;14.50;;;;;23.76;42.70;101381.38;6220226;22;55594;-74
2021/09/23 10:29:28;;;;;;;;;12.50;12.50;;;;;23.83;43.17;101391.78;6220258;22;45378;-74
2021/09/23 10:31:57;;;;;;;;;19.00;16.25;;;;;23.78;42.78;101374.19;6194924;22;47930;-74
2021/09/23 10:34:23;;;;;;;;;18.75;14.00;;;;;23.76;43.39;101376.94;6220273;22;45300;-75
2021/09/23 10:36:50;;;;;;;;;12.75;12.25;;;;;23.79;43.83;101379.47;6218749;22;50149;-75
2021/09/23 10:39:16;;;;;;;;;17.25;14.00;;;;;23.89;43.38;101385.34;6219834;22;45424;-75
2021/09/23 10:41:44;;;;;;;;;16.50;15.75;;;;;23.88;43.38;101379.13;6194511;22;52611;-75
2021/09/23 10:44:13;;;;;;;;;16.50;15.25;;;;;23.81;43.79;101363.44;6220056;22;45347;-77
2021/09/23 10:46:38;;;;;;;;;14.75;12.75;;;;;23.89;43.58;101380.00;6247486;22;45376;-74
2021/09/23 10:49:04;;;;;;;;;16.00;15.00;;;;;23.88;42.69;101371.16;6219640;22;45502;-77
2021/09/23 10:51:31;;;;;;;;;16.50;15.00;;;;;23.88;42.55;101365.81;6219269;22;47782;-76
2021/09/23 10:53:59;;;;;;;;;15.25;13.50;;;;;23.79;42.03;101359.94;6194391;22;45413;-76
2021/09/23 10:56:26;;;;;;;;;13.00;11.25;;;;;23.82;41.89;101357.19;6195642;22;45344;-76
2021/09/23 10:58:52;;;;;;;;;14.50;14.25;;;;;23.86;42.17;101359.66;6195218;22;45209;-74
2021/09/23 11:01:29;;;;;;;;;14.50;13.75;;;;;23.81;41.78;101347.44;6219511;22;46002;-76
2021/09/23 11:03:58;;;;;;;;;16.00;15.25;;;;;23.82;41.49;101343.84;6220452;22;45673;-76
2021/09/23 11:06:34;;;;;;;;;16.50;14.50;;;;;23.86;41.69;101350.81;6246488;22;45399;-76